createdAt,value
2018-12-16T00:01:28.212Z,69.50
2018-12-16T00:03:55.797Z,69.60
2018-12-16T00:06:23.567Z,69.60
2018-12-16T00:08:51.483Z,69.60
2018-12-16T00:11:19.265Z,70.50
2018-12-16T00:13:47.156Z,69.40
2018-12-16T00:16:14.904Z,69.40
2018-12-16T00:18:42.547Z,69.60
2018-12-16T00:21:10.155Z,69.60
2018-12-16T00:23:37.709Z,69.50
2018-12-16T00:26:05.453Z,69.70
2018-12-16T00:28:33.174Z,69.70
2018-12-16T00:31:01.039Z,69.90
2018-12-16T00:33:28.881Z,69.70
2018-12-16T00:36:03.763Z,69.90
2018-12-16T00:38:31.579Z,70.00
2018-12-16T00:40:59.533Z,70.10
2018-12-16T00:43:27.072Z,70.20
2018-12-16T00:45:54.578Z,70.30
2018-12-16T00:48:22.337Z,70.50
2018-12-16T00:50:49.978Z,70.60
2018-12-16T00:53:17.912Z,70.40
2018-12-16T00:55:45.504Z,70.50
2018-12-16T00:58:13.302Z,70.50
2018-12-16T01:00:40.836Z,70.60
2018-12-16T01:03:08.716Z,70.80
2018-12-16T01:05:37.228Z,71.00
2018-12-16T01:08:04.916Z,70.90
2018-12-16T01:10:32.784Z,70.90
2018-12-16T01:13:00.595Z,70.90
2018-12-16T01:15:28.332Z,70.90
2018-12-16T01:17:55.973Z,71.10
2018-12-16T01:20:23.937Z,71.00
2018-12-16T01:22:51.698Z,70.90
2018-12-16T01:25:19.739Z,70.80
2018-12-16T01:27:48.672Z,70.50
2018-12-16T01:30:16.256Z,70.30
2018-12-16T01:32:44.219Z,70.20
2018-12-16T01:35:12.263Z,70.80
2018-12-16T01:37:39.848Z,70.00
2018-12-16T01:40:07.934Z,70.20
2018-12-16T01:42:35.546Z,71.00
2018-12-16T01:45:03.494Z,70.20
2018-12-16T01:47:31.240Z,70.10
2018-12-16T01:49:58.782Z,70.20
2018-12-16T01:52:26.400Z,70.70
2018-12-16T01:54:54.108Z,71.30
2018-12-16T01:57:21.630Z,71.90
2018-12-16T01:59:49.429Z,72.40
2018-12-16T02:02:17.060Z,73.90
2018-12-16T02:04:44.908Z,75.60
2018-12-16T02:07:12.564Z,77.40
2018-12-16T02:09:40.151Z,78.90
2018-12-16T02:12:08.116Z,79.90
2018-12-16T02:14:35.820Z,81.10
2018-12-16T02:17:03.434Z,82.00
2018-12-16T02:19:30.994Z,82.80
2018-12-16T02:21:58.770Z,83.70
2018-12-16T02:24:26.289Z,84.60
2018-12-16T02:26:54.076Z,85.70
2018-12-16T02:29:21.669Z,86.80
2018-12-16T02:31:49.604Z,87.90
2018-12-16T02:34:17.684Z,88.60
2018-12-16T02:36:46.328Z,89.10
2018-12-16T02:39:13.799Z,89.50
2018-12-16T02:41:41.518Z,89.70
2018-12-16T02:44:09.014Z,89.80
2018-12-16T02:46:37.487Z,89.90
2018-12-16T02:49:05.097Z,90.00
2018-12-16T02:51:32.650Z,90.10
2018-12-16T02:54:00.091Z,90.40
2018-12-16T02:56:27.657Z,90.60
2018-12-16T02:58:55.904Z,90.70
2018-12-16T03:01:23.433Z,90.60
2018-12-16T03:03:50.955Z,90.70
2018-12-16T03:06:18.498Z,91.00
2018-12-16T03:08:47.711Z,91.30
2018-12-16T03:11:15.467Z,91.40
2018-12-16T03:13:43.109Z,91.50
2018-12-16T03:16:10.552Z,91.70
2018-12-16T03:18:38.157Z,91.80
2018-12-16T03:21:06.047Z,91.90
2018-12-16T03:23:33.552Z,92.00
2018-12-16T03:26:01.051Z,92.00
2018-12-16T03:28:28.674Z,92.00
2018-12-16T03:30:56.411Z,92.10
2018-12-16T03:33:24.061Z,92.20
2018-12-16T03:35:51.491Z,92.20
2018-12-16T03:38:19.159Z,92.20
2018-12-16T03:40:46.653Z,92.20
2018-12-16T03:43:14.323Z,92.20
2018-12-16T03:45:41.893Z,92.20
2018-12-16T03:48:09.599Z,92.20
2018-12-16T03:50:37.213Z,92.50
2018-12-16T03:53:04.762Z,92.60
2018-12-16T03:55:32.568Z,92.90
2018-12-16T03:58:00.077Z,93.10
2018-12-16T04:00:27.677Z,93.20
2018-12-16T04:02:55.422Z,93.40
2018-12-16T04:05:23.062Z,93.50
2018-12-16T04:07:50.675Z,93.70
2018-12-16T04:10:19.181Z,93.90
2018-12-16T04:12:46.698Z,93.90
2018-12-16T04:15:15.020Z,94.00
2018-12-16T04:17:42.959Z,94.40
2018-12-16T04:20:10.483Z,94.20
2018-12-16T04:22:38.110Z,94.30
2018-12-16T04:25:05.990Z,94.40
2018-12-16T04:27:33.571Z,94.40
2018-12-16T04:30:01.124Z,94.50
2018-12-16T04:32:28.729Z,94.50
2018-12-16T04:34:56.457Z,94.60
2018-12-16T04:37:23.986Z,94.70
2018-12-16T04:39:51.437Z,94.70
2018-12-16T04:42:19.951Z,95.10
2018-12-16T04:44:47.396Z,94.80
2018-12-16T04:47:14.933Z,94.80
2018-12-16T04:49:42.418Z,94.80
2018-12-16T04:52:09.955Z,94.80
2018-12-16T04:54:37.774Z,94.80
2018-12-16T04:57:05.364Z,94.80
2018-12-16T04:59:32.823Z,94.70
2018-12-16T05:02:00.379Z,94.60
2018-12-16T05:04:28.225Z,94.60
2018-12-16T05:06:55.857Z,94.50
2018-12-16T05:09:23.465Z,94.60
2018-12-16T05:11:51.152Z,94.50
2018-12-16T05:14:18.915Z,94.50
2018-12-16T05:16:46.484Z,94.50
2018-12-16T05:19:14.122Z,94.40
2018-12-16T05:21:41.667Z,94.40
2018-12-16T05:24:09.248Z,94.60
2018-12-16T05:26:36.751Z,94.30
2018-12-16T05:29:04.403Z,94.20
2018-12-16T05:31:31.874Z,94.20
2018-12-16T05:33:59.456Z,94.20
2018-12-16T05:36:27.077Z,94.10
2018-12-16T05:38:54.696Z,94.00
2018-12-16T05:41:22.223Z,93.90
2018-12-16T05:43:49.909Z,93.80
2018-12-16T05:46:18.262Z,93.70
2018-12-16T05:48:45.947Z,93.60
2018-12-16T05:51:13.743Z,93.70
2018-12-16T05:53:41.300Z,93.50
2018-12-16T05:56:08.887Z,93.50
2018-12-16T05:58:36.419Z,93.20
2018-12-16T06:01:04.311Z,93.10
2018-12-16T06:03:32.379Z,93.00
2018-12-16T06:06:00.090Z,93.00
2018-12-16T06:08:27.720Z,92.80
2018-12-16T06:10:55.326Z,92.70
2018-12-16T06:13:22.980Z,92.60
2018-12-16T06:15:50.501Z,92.50
2018-12-16T06:18:18.115Z,92.30
2018-12-16T06:20:45.583Z,92.30
2018-12-16T06:23:13.081Z,92.10
2018-12-16T06:25:40.726Z,92.00
2018-12-16T06:28:08.632Z,91.90
2018-12-16T06:30:37.397Z,91.80
2018-12-16T06:33:05.189Z,91.70
2018-12-16T06:35:32.737Z,91.80
2018-12-16T06:38:00.405Z,91.60
2018-12-16T06:40:27.941Z,91.60
2018-12-16T06:42:55.541Z,91.40
2018-12-16T06:45:23.331Z,91.40
2018-12-16T06:47:50.912Z,91.40
2018-12-16T06:50:18.430Z,91.20
2018-12-16T06:52:45.989Z,91.10
2018-12-16T06:55:13.515Z,91.10
2018-12-16T06:57:41.784Z,91.00
2018-12-16T07:00:09.476Z,91.00
2018-12-16T07:02:37.100Z,91.00
2018-12-16T07:05:05.333Z,90.90
2018-12-16T07:07:32.833Z,90.90
2018-12-16T07:10:00.500Z,90.90
2018-12-16T07:12:28.176Z,90.80
2018-12-16T07:14:55.856Z,90.80
2018-12-16T07:17:23.312Z,90.60
2018-12-16T07:19:50.993Z,90.60
2018-12-16T07:22:18.792Z,90.70
2018-12-16T07:24:46.702Z,90.70
2018-12-16T07:27:14.195Z,90.60
2018-12-16T07:29:41.838Z,90.60
2018-12-16T07:32:09.674Z,90.70
2018-12-16T07:34:37.448Z,90.70
2018-12-16T07:37:05.012Z,90.60
2018-12-16T07:39:32.712Z,90.70
2018-12-16T07:42:00.165Z,90.60
2018-12-16T07:44:28.222Z,90.80
2018-12-16T07:46:55.933Z,90.70
2018-12-16T07:49:23.578Z,90.60
2018-12-16T07:51:51.469Z,90.60
2018-12-16T07:54:19.041Z,90.60
2018-12-16T07:56:46.476Z,90.60
2018-12-16T07:59:14.251Z,90.50
2018-12-16T08:01:43.138Z,90.40
2018-12-16T08:04:10.838Z,90.40
2018-12-16T08:06:38.390Z,90.50
2018-12-16T08:09:06.381Z,90.50
2018-12-16T08:11:34.450Z,90.50
2018-12-16T08:14:02.502Z,90.50
2018-12-16T08:16:34.325Z,90.50
2018-12-16T08:19:07.029Z,90.50
2018-12-16T08:21:31.713Z,90.60
2018-12-16T08:23:59.211Z,90.50
2018-12-16T08:26:27.035Z,90.60
2018-12-16T08:28:54.822Z,90.60
2018-12-16T08:31:22.610Z,90.50
2018-12-16T08:33:50.276Z,90.40
2018-12-16T08:36:18.477Z,90.50
2018-12-16T08:38:46.214Z,90.50
2018-12-16T08:41:13.783Z,90.50
2018-12-16T08:43:48.277Z,90.70
2018-12-16T08:46:16.136Z,90.80
2018-12-16T08:48:43.630Z,90.70
2018-12-16T08:51:11.057Z,90.70
2018-12-16T08:53:38.516Z,90.70
2018-12-16T08:56:06.089Z,90.60
2018-12-16T08:58:33.670Z,90.60
2018-12-16T09:01:01.220Z,90.60
2018-12-16T09:03:28.936Z,90.60
2018-12-16T09:05:56.368Z,90.70
2018-12-16T09:08:24.221Z,90.60
2018-12-16T09:10:52.050Z,90.70
2018-12-16T09:13:20.528Z,90.70
2018-12-16T09:15:48.043Z,90.90
2018-12-16T09:18:15.637Z,91.00
2018-12-16T09:20:43.045Z,91.10
2018-12-16T09:23:10.880Z,91.20
2018-12-16T09:25:38.782Z,91.20
2018-12-16T09:28:06.456Z,91.30
2018-12-16T09:30:33.929Z,91.30
2018-12-16T09:33:01.424Z,91.40
2018-12-16T09:35:29.047Z,91.30
2018-12-16T09:37:56.508Z,91.50
2018-12-16T09:40:24.007Z,91.30
2018-12-16T09:42:51.456Z,91.30
2018-12-16T09:45:19.031Z,91.30
2018-12-16T09:47:47.060Z,91.30
2018-12-16T09:50:14.800Z,91.30
2018-12-16T09:52:42.637Z,91.20
2018-12-16T09:55:10.395Z,91.20
2018-12-16T09:57:38.229Z,91.20
2018-12-16T10:00:08.056Z,91.20
2018-12-16T10:02:35.586Z,91.10
2018-12-16T10:05:03.420Z,91.10
2018-12-16T10:07:31.262Z,91.20
2018-12-16T10:09:58.856Z,91.30
2018-12-16T10:12:26.529Z,91.30
2018-12-16T10:14:54.034Z,91.20
2018-12-16T10:17:21.716Z,91.20
2018-12-16T10:19:49.597Z,91.20
2018-12-16T10:22:17.172Z,91.20
2018-12-16T10:24:51.087Z,91.20
2018-12-16T10:27:14.472Z,91.10
2018-12-16T10:29:42.054Z,91.00
2018-12-16T10:32:09.693Z,90.90
2018-12-16T10:34:37.564Z,90.90
2018-12-16T10:37:05.121Z,90.80
2018-12-16T10:39:32.590Z,90.80
2018-12-16T10:42:00.036Z,90.80
2018-12-16T10:44:27.484Z,90.90
2018-12-16T10:46:55.046Z,90.80
2018-12-16T10:49:22.580Z,91.10
2018-12-16T10:51:50.442Z,90.70
2018-12-16T10:54:18.267Z,90.70
2018-12-16T10:56:45.789Z,90.70
2018-12-16T10:59:13.314Z,90.70
2018-12-16T11:01:40.996Z,90.70
2018-12-16T11:04:08.541Z,90.80
2018-12-16T11:06:36.380Z,90.70
2018-12-16T11:09:04.894Z,90.40
2018-12-16T11:11:32.639Z,90.60
2018-12-16T11:14:00.385Z,90.60
2018-12-16T11:16:28.109Z,90.50
2018-12-16T11:18:55.876Z,90.50
2018-12-16T11:21:23.614Z,90.60
2018-12-16T11:23:53.955Z,90.70
2018-12-16T11:26:21.079Z,90.70
2018-12-16T11:28:48.782Z,90.60
2018-12-16T11:31:16.513Z,90.50
2018-12-16T11:33:44.353Z,90.50
2018-12-16T11:36:12.029Z,90.50
2018-12-16T11:38:40.148Z,90.40
2018-12-16T11:41:07.918Z,90.50
2018-12-16T11:43:35.828Z,90.40
2018-12-16T11:46:03.543Z,90.40
2018-12-16T11:48:31.195Z,90.40
2018-12-16T11:53:42.773Z,90.50
2018-12-16T11:56:10.392Z,90.50
2018-12-16T11:58:38.148Z,90.50
2018-12-16T12:01:06.041Z,90.60
2018-12-16T12:03:33.715Z,90.70
2018-12-16T12:06:01.275Z,90.70
2018-12-16T12:08:28.912Z,90.80
2018-12-16T12:10:56.453Z,90.90
2018-12-16T12:13:24.133Z,90.80
2018-12-16T12:15:51.687Z,90.80
2018-12-16T12:18:19.265Z,90.80
2018-12-16T12:20:46.649Z,90.90
2018-12-16T12:23:14.185Z,90.80
2018-12-16T12:25:41.746Z,90.80
2018-12-16T12:28:09.495Z,90.70
2018-12-16T12:30:36.984Z,90.70
2018-12-16T12:33:04.711Z,90.60
2018-12-16T12:35:32.255Z,90.60
2018-12-16T12:37:59.735Z,90.60
2018-12-16T12:40:27.251Z,90.60
2018-12-16T12:42:55.013Z,90.50
2018-12-16T12:45:22.549Z,90.50
2018-12-16T12:47:50.079Z,90.50
2018-12-16T12:50:17.583Z,90.90
2018-12-16T12:52:45.191Z,90.50
2018-12-16T12:55:12.693Z,90.50
2018-12-16T12:57:40.238Z,90.50
2018-12-16T13:00:11.498Z,90.60
2018-12-16T13:02:39.116Z,91.00
2018-12-16T13:05:06.859Z,90.60
2018-12-16T13:07:34.375Z,90.70
2018-12-16T13:10:01.875Z,90.60
2018-12-16T13:12:29.407Z,90.90
2018-12-16T13:14:56.931Z,90.50
2018-12-16T13:17:24.449Z,90.40
2018-12-16T13:19:51.926Z,90.40
2018-12-16T13:22:19.410Z,90.40
2018-12-16T13:24:58.312Z,90.40
2018-12-16T13:27:25.759Z,90.50
2018-12-16T13:29:53.232Z,90.80
2018-12-16T13:32:20.762Z,90.50
2018-12-16T13:34:48.279Z,90.60
2018-12-16T13:37:15.693Z,90.60
2018-12-16T13:39:43.196Z,90.70
2018-12-16T13:42:10.681Z,90.60
2018-12-16T13:44:38.174Z,91.00
2018-12-16T13:47:05.711Z,90.70
2018-12-16T13:49:33.219Z,90.80
2018-12-16T13:52:00.743Z,90.80
2018-12-16T13:54:28.196Z,90.90
2018-12-16T13:56:55.673Z,90.90
2018-12-16T13:59:23.181Z,91.00
2018-12-16T14:01:50.651Z,91.10
2018-12-16T14:04:18.122Z,91.00
2018-12-16T14:06:45.703Z,91.00
2018-12-16T14:09:14.607Z,91.00
2018-12-16T14:14:45.198Z,91.10
2018-12-16T14:17:12.854Z,91.20
2018-12-16T14:19:40.322Z,91.30
2018-12-16T14:22:08.101Z,91.30
2018-12-16T14:24:40.980Z,91.30
2018-12-16T14:27:09.412Z,91.40
2018-12-16T14:29:36.920Z,91.30
2018-12-16T14:32:04.439Z,91.40
2018-12-16T14:34:31.928Z,91.40
2018-12-16T14:36:59.641Z,91.40
2018-12-16T14:39:27.353Z,91.30
2018-12-16T14:41:54.808Z,91.40
2018-12-16T14:44:22.342Z,91.40
2018-12-16T14:46:49.779Z,91.30
2018-12-16T14:49:17.216Z,91.30
2018-12-16T14:51:44.677Z,91.70
2018-12-16T14:54:12.152Z,91.40
2018-12-16T14:56:39.634Z,91.40
2018-12-16T14:59:07.105Z,91.80
2018-12-16T15:01:34.853Z,91.50
2018-12-16T15:04:02.466Z,91.50
2018-12-16T15:06:29.961Z,91.50
2018-12-16T15:08:57.355Z,91.60
2018-12-16T15:11:24.815Z,91.60
2018-12-16T15:13:52.360Z,91.50
2018-12-16T15:16:19.874Z,91.50
2018-12-16T15:18:47.243Z,91.40
2018-12-16T15:21:14.725Z,91.40
2018-12-16T15:23:42.227Z,91.50
2018-12-16T15:26:09.710Z,91.50
2018-12-16T15:28:37.175Z,91.70
2018-12-16T15:31:04.687Z,91.70
2018-12-16T15:33:32.150Z,91.70
2018-12-16T15:35:59.629Z,91.70
2018-12-16T15:38:27.068Z,91.70
2018-12-16T15:40:54.695Z,92.10
2018-12-16T15:43:22.186Z,91.80
2018-12-16T15:45:49.655Z,91.80
2018-12-16T15:48:17.123Z,91.80
2018-12-16T15:50:44.575Z,91.80
2018-12-16T15:53:11.939Z,91.80
2018-12-16T15:55:39.423Z,92.30
2018-12-16T15:58:06.996Z,92.10
2018-12-16T16:00:34.437Z,92.00
2018-12-16T16:03:01.853Z,92.10
2018-12-16T16:05:35.949Z,92.10
2018-12-16T16:08:04.012Z,92.10
2018-12-16T16:10:31.563Z,92.10
2018-12-16T16:12:59.080Z,92.10
2018-12-16T16:15:26.600Z,92.20
2018-12-16T16:17:54.084Z,92.20
2018-12-16T16:20:21.593Z,92.20
2018-12-16T16:22:48.974Z,92.50
2018-12-16T16:25:16.936Z,92.20
2018-12-16T16:27:44.533Z,92.30
2018-12-16T16:30:11.991Z,92.30
2018-12-16T16:32:39.486Z,92.40
2018-12-16T16:35:07.197Z,92.20
2018-12-16T16:37:34.712Z,92.50
2018-12-16T16:40:02.327Z,92.50
2018-12-16T16:42:29.847Z,92.60
2018-12-16T16:44:57.437Z,93.00
2018-12-16T16:47:24.931Z,92.60
2018-12-16T16:49:52.532Z,92.70
2018-12-16T16:52:20.032Z,92.70
2018-12-16T16:54:47.654Z,92.70
2018-12-16T16:57:15.180Z,92.80
2018-12-16T16:59:42.755Z,92.80
2018-12-16T17:02:10.251Z,92.80
2018-12-16T17:04:37.761Z,92.90
2018-12-16T17:07:05.261Z,92.90
2018-12-16T17:09:32.794Z,92.90
2018-12-16T17:12:00.352Z,92.90
2018-12-16T17:14:27.828Z,93.00
2018-12-16T17:16:55.319Z,93.00
2018-12-16T17:19:23.195Z,93.00
2018-12-16T17:21:51.355Z,93.00
2018-12-16T17:24:18.941Z,93.10
2018-12-16T17:26:46.411Z,93.30
2018-12-16T17:29:13.895Z,93.20
2018-12-16T17:31:41.372Z,93.30
2018-12-16T17:34:08.911Z,93.40
2018-12-16T17:36:36.871Z,93.50
2018-12-16T17:39:07.732Z,93.60
2018-12-16T17:41:35.443Z,93.70
2018-12-16T17:44:03.600Z,93.80
2018-12-16T17:46:31.136Z,93.90
2018-12-16T17:48:58.608Z,93.90
2018-12-16T17:51:26.116Z,94.00
2018-12-16T17:53:53.590Z,94.00
2018-12-16T17:56:21.593Z,94.00
2018-12-16T17:58:49.098Z,94.20
2018-12-16T18:01:16.765Z,94.30
2018-12-16T18:03:44.291Z,94.30
2018-12-16T18:06:11.908Z,94.30
2018-12-16T18:08:39.336Z,94.30
2018-12-16T18:11:06.862Z,94.30
2018-12-16T18:13:35.144Z,94.40
2018-12-16T18:16:02.658Z,94.40
2018-12-16T18:18:30.000Z,94.50
2018-12-16T18:20:57.494Z,94.50
2018-12-16T18:23:29.595Z,94.50
2018-12-16T18:25:54.512Z,94.60
2018-12-16T18:28:22.026Z,94.60
2018-12-16T18:30:49.372Z,94.60
2018-12-16T18:33:16.740Z,94.80
2018-12-16T18:35:44.201Z,94.70
2018-12-16T18:38:11.788Z,94.60
2018-12-16T18:40:39.404Z,94.70
2018-12-16T18:43:06.979Z,94.70
2018-12-16T18:45:34.485Z,94.80
2018-12-16T18:48:02.111Z,94.80
2018-12-16T18:50:29.590Z,94.80
2018-12-16T18:52:57.071Z,94.80
2018-12-16T18:55:24.640Z,94.90
2018-12-16T18:57:52.159Z,94.90
2018-12-16T19:00:19.675Z,95.00
2018-12-16T19:02:47.212Z,95.10
2018-12-16T19:05:14.716Z,95.20
2018-12-16T19:07:42.170Z,95.20
2018-12-16T19:10:09.824Z,95.20
2018-12-16T19:12:37.309Z,95.20
2018-12-16T19:15:06.574Z,95.20
2018-12-16T19:17:34.214Z,95.20
2018-12-16T19:20:01.831Z,95.30
2018-12-16T19:22:29.308Z,95.30
2018-12-16T19:24:56.807Z,95.30
2018-12-16T19:27:24.269Z,95.40
2018-12-16T19:29:51.830Z,95.50
2018-12-16T19:32:19.307Z,95.50
2018-12-16T19:34:46.827Z,95.40
2018-12-16T19:37:14.297Z,95.40
2018-12-16T19:39:41.859Z,95.60
2018-12-16T19:42:09.589Z,95.50
2018-12-16T19:44:37.074Z,95.50
2018-12-16T19:47:04.468Z,95.50
2018-12-16T19:49:31.946Z,95.50
2018-12-16T19:51:59.353Z,95.60
2018-12-16T19:54:27.169Z,95.60
2018-12-16T19:56:54.670Z,95.70
2018-12-16T19:59:22.252Z,95.70
2018-12-16T20:01:49.739Z,95.70
2018-12-16T20:04:19.317Z,95.70
2018-12-16T20:06:47.646Z,95.70
2018-12-16T20:09:15.266Z,95.70
2018-12-16T20:11:42.875Z,95.70
2018-12-16T20:14:10.352Z,95.80
2018-12-16T20:16:37.749Z,95.80
2018-12-16T20:19:05.545Z,95.80
2018-12-16T20:21:33.151Z,95.80
2018-12-16T20:24:00.648Z,95.90
2018-12-16T20:26:28.279Z,95.80
2018-12-16T20:28:55.799Z,95.70
2018-12-16T20:31:23.329Z,95.70
2018-12-16T20:33:50.907Z,95.70
2018-12-16T20:36:18.551Z,95.80
2018-12-16T20:38:46.042Z,96.00
2018-12-16T20:41:13.571Z,96.00
2018-12-16T20:43:41.200Z,96.00
2018-12-16T20:46:08.981Z,95.90
2018-12-16T20:48:36.641Z,95.90
2018-12-16T20:51:04.335Z,95.90
2018-12-16T20:53:31.877Z,95.90
2018-12-16T20:55:59.407Z,95.90
2018-12-16T20:58:26.935Z,96.00
2018-12-16T21:00:54.704Z,96.10
2018-12-16T21:03:22.266Z,96.40
2018-12-16T21:05:49.905Z,96.10
2018-12-16T21:08:17.485Z,96.10
2018-12-16T21:10:44.946Z,96.30
2018-12-16T21:13:18.362Z,96.30
2018-12-16T21:15:51.511Z,96.30
2018-12-16T21:18:23.070Z,96.20
2018-12-16T21:20:51.074Z,96.20
2018-12-16T21:23:18.493Z,96.30
2018-12-16T21:25:46.233Z,96.40
2018-12-16T21:28:14.223Z,96.40
2018-12-16T21:30:41.699Z,96.40
2018-12-16T21:33:09.196Z,96.30
2018-12-16T21:35:36.845Z,96.60
2018-12-16T21:38:04.385Z,96.40
2018-12-16T21:40:31.799Z,96.40
2018-12-16T21:42:59.286Z,96.40
2018-12-16T21:45:26.828Z,96.40
2018-12-16T21:47:54.428Z,96.50
2018-12-16T21:50:21.956Z,96.50
2018-12-16T21:52:49.363Z,96.40
2018-12-16T21:55:16.861Z,96.40
2018-12-16T21:57:44.333Z,96.40
2018-12-16T22:00:12.050Z,96.30
2018-12-16T22:02:39.559Z,96.40
2018-12-16T22:05:08.786Z,96.30
2018-12-16T22:07:36.348Z,96.30
2018-12-16T22:10:04.939Z,96.30
2018-12-16T22:12:32.456Z,96.30
2018-12-16T22:14:59.990Z,96.30
2018-12-16T22:17:27.473Z,96.40
2018-12-16T22:19:54.985Z,96.40
2018-12-16T22:22:22.484Z,96.40
2018-12-16T22:24:49.984Z,96.40
2018-12-16T22:27:17.472Z,96.40
2018-12-16T22:29:45.040Z,96.40
2018-12-16T22:32:12.509Z,96.50
2018-12-16T22:34:40.012Z,96.50
2018-12-16T22:37:07.729Z,96.50
2018-12-16T22:39:35.184Z,96.50
2018-12-16T22:42:02.816Z,96.50
2018-12-16T22:44:30.304Z,96.60
2018-12-16T22:46:57.696Z,96.60
2018-12-16T22:49:25.194Z,96.60
2018-12-16T22:51:53.789Z,96.60
2018-12-16T22:54:21.564Z,96.60
2018-12-16T22:56:49.088Z,96.80
2018-12-16T22:59:16.658Z,96.80
2018-12-16T23:01:44.255Z,96.80
2018-12-16T23:04:11.828Z,96.80
2018-12-16T23:06:39.336Z,96.80
2018-12-16T23:09:07.028Z,96.80
2018-12-16T23:11:35.032Z,96.80
2018-12-16T23:14:02.716Z,96.80
2018-12-16T23:16:30.600Z,96.90
2018-12-16T23:18:58.227Z,96.90
2018-12-16T23:21:25.801Z,96.90
2018-12-16T23:23:53.412Z,97.00
2018-12-16T23:26:21.134Z,97.10
2018-12-16T23:28:48.797Z,97.10
2018-12-16T23:31:16.376Z,97.10
2018-12-16T23:33:44.138Z,97.10
2018-12-16T23:36:11.652Z,97.30
2018-12-16T23:38:39.211Z,97.30
2018-12-16T23:41:06.746Z,97.30
2018-12-16T23:43:34.433Z,97.30
2018-12-16T23:46:01.915Z,97.30
2018-12-16T23:48:29.406Z,97.30
2018-12-16T23:50:56.863Z,97.30
2018-12-16T23:53:24.346Z,97.40
2018-12-16T23:55:51.685Z,97.40
2018-12-16T23:58:19.098Z,97.40
